createdAt,value
2022-11-23T00:01:39.829Z,95.85
2022-11-23T00:06:43.139Z,97.81
2022-11-23T00:11:47.148Z,99.26
2022-11-23T00:16:49.739Z,97.78
2022-11-23T00:21:52.329Z,96.83
2022-11-23T00:26:56.555Z,97.41
2022-11-23T00:31:59.113Z,95.78
2022-11-23T00:37:01.695Z,94.85
2022-11-23T00:42:06.007Z,94.70
2022-11-23T00:47:08.594Z,94.69
2022-11-23T00:52:11.290Z,96.55
2022-11-23T00:57:15.457Z,96.22
2022-11-23T01:02:18.241Z,95.35
2022-11-23T01:07:20.962Z,94.88
2022-11-23T01:12:25.346Z,93.09
2022-11-23T01:17:27.917Z,94.45
2022-11-23T01:22:30.534Z,93.97
2022-11-23T01:27:34.572Z,92.96
2022-11-23T01:32:37.286Z,93.70
2022-11-23T01:37:39.918Z,93.55
2022-11-23T01:42:53.782Z,95.83
2022-11-23T01:47:56.483Z,95.67
2022-11-23T01:52:59.410Z,96.55
2022-11-23T01:58:04.799Z,95.18
2022-11-23T02:03:08.368Z,94.58
2022-11-23T02:08:12.674Z,93.75
2022-11-23T02:13:16.886Z,94.08
2022-11-23T02:18:23.974Z,95.91
2022-11-23T02:23:34.791Z,96.53
2022-11-23T02:28:43.412Z,97.19
2022-11-23T02:33:46.032Z,97.61
2022-11-23T02:38:48.992Z,96.88
2022-11-23T02:43:57.677Z,96.58
2022-11-23T02:49:00.385Z,97.85
2022-11-23T02:54:03.347Z,100.00
2022-11-23T02:59:07.379Z,100.00
2022-11-23T03:04:10.702Z,100.00
2022-11-23T03:09:13.512Z,100.00
2022-11-23T03:14:17.571Z,100.00
2022-11-23T03:19:20.160Z,100.00
2022-11-23T03:24:22.812Z,100.00
2022-11-23T03:29:28.007Z,100.00
2022-11-23T03:34:30.689Z,100.00
2022-11-23T03:39:33.644Z,100.00
2022-11-23T03:44:37.762Z,100.00
2022-11-23T03:49:40.392Z,100.00
2022-11-23T03:54:43.076Z,100.00
2022-11-23T03:59:47.022Z,100.00
2022-11-23T04:04:49.818Z,100.00
2022-11-23T04:09:52.393Z,100.00
2022-11-23T04:14:57.407Z,98.61
2022-11-23T04:20:00.058Z,98.15
2022-11-23T04:25:02.991Z,97.29
2022-11-23T04:30:08.215Z,98.98
2022-11-23T04:35:10.805Z,96.40
2022-11-23T04:40:14.912Z,96.08
2022-11-23T04:45:18.904Z,95.26
2022-11-23T04:50:21.616Z,95.48
2022-11-23T04:55:24.446Z,97.12
2022-11-23T05:00:29.985Z,99.67
2022-11-23T05:05:32.667Z,98.30
2022-11-23T05:10:36.013Z,97.12
2022-11-23T05:15:40.059Z,96.04
2022-11-23T05:20:42.716Z,95.61
2022-11-23T05:25:45.475Z,95.25
2022-11-23T05:30:49.782Z,95.69
2022-11-23T05:35:52.496Z,95.72
2022-11-23T05:40:55.193Z,97.09
2022-11-23T05:46:01.346Z,98.28
2022-11-23T05:51:05.662Z,98.27
2022-11-23T05:56:08.628Z,100.00
2022-11-23T06:01:13.769Z,100.00
2022-11-23T06:06:16.375Z,100.00
2022-11-23T06:11:19.029Z,100.00
2022-11-23T06:16:23.045Z,99.67
2022-11-23T06:21:25.821Z,100.00
2022-11-23T06:26:28.567Z,100.00
2022-11-23T06:31:32.950Z,100.00
2022-11-23T06:36:35.794Z,100.00
2022-11-23T06:41:38.550Z,100.00
2022-11-23T06:46:42.565Z,99.82
2022-11-23T06:51:46.372Z,98.62
2022-11-23T06:56:48.953Z,96.18
2022-11-23T07:01:53.260Z,96.76
2022-11-23T07:06:56.123Z,94.93
2022-11-23T07:11:58.772Z,94.26
2022-11-23T07:17:03.003Z,94.14
2022-11-23T07:22:05.629Z,94.02
2022-11-23T07:27:08.308Z,98.12
2022-11-23T07:32:14.881Z,96.12
2022-11-23T07:37:17.530Z,94.37
2022-11-23T07:42:44.562Z,95.41
2022-11-23T07:47:47.041Z,94.99
2022-11-23T07:52:49.617Z,95.38
2022-11-23T07:57:55.914Z,95.12
2022-11-23T08:08:24.063Z,99.28
2022-11-23T08:13:26.751Z,97.22
2022-11-23T08:18:30.888Z,94.52
2022-11-23T08:23:33.540Z,93.69
2022-11-23T08:28:37.836Z,93.82
2022-11-23T08:33:42.054Z,92.97
2022-11-23T08:38:44.901Z,92.66
2022-11-23T08:43:47.654Z,91.54
2022-11-23T08:48:51.723Z,90.57
2022-11-23T08:53:54.548Z,91.14
2022-11-23T08:58:57.200Z,91.56
2022-11-23T09:04:01.934Z,92.39
2022-11-23T09:09:10.966Z,89.54
2022-11-23T09:14:13.562Z,89.97
2022-11-23T09:19:17.635Z,89.27
2022-11-23T09:24:20.407Z,88.24
2022-11-23T09:29:23.107Z,85.11
2022-11-23T09:34:27.327Z,86.52
2022-11-23T09:39:29.892Z,86.03
2022-11-23T09:44:44.796Z,84.86
2022-11-23T09:49:59.966Z,83.24
2022-11-23T09:55:10.356Z,84.01
2022-11-23T10:00:21.906Z,82.96
2022-11-23T10:05:28.995Z,80.76
2022-11-23T10:10:41.743Z,80.99
2022-11-23T10:16:00.989Z,80.79
2022-11-23T10:21:15.562Z,80.85
2022-11-23T10:26:20.413Z,80.24
2022-11-23T10:31:25.952Z,81.88
2022-11-23T10:36:36.525Z,80.87
2022-11-23T10:41:39.150Z,80.57
2022-11-23T10:46:42.223Z,82.92
2022-11-23T10:51:57.907Z,82.50
2022-11-23T10:57:02.858Z,81.79
2022-11-23T11:02:20.336Z,82.55
2022-11-23T11:07:28.412Z,79.45
2022-11-23T11:12:35.429Z,78.02
2022-11-23T11:17:40.990Z,75.15
2022-11-23T11:22:47.875Z,73.36
2022-11-23T11:27:53.308Z,69.04
2022-11-23T11:33:05.126Z,66.12
2022-11-23T11:38:15.873Z,62.29
2022-11-23T11:43:29.289Z,59.20
2022-11-23T11:48:39.086Z,54.98
2022-11-23T11:53:50.429Z,54.90
2022-11-23T11:59:00.195Z,52.61
2022-11-23T12:04:08.074Z,55.93
2022-11-23T12:09:17.095Z,53.31
2022-11-23T12:14:20.091Z,55.11
2022-11-23T12:19:27.738Z,53.34
2022-11-23T12:24:47.085Z,54.29
2022-11-23T12:30:13.521Z,51.25
2022-11-23T12:35:35.847Z,53.73
2022-11-23T12:41:23.470Z,56.10
2022-11-23T12:46:37.437Z,50.65
2022-11-23T12:51:48.073Z,52.97
2022-11-23T12:57:00.665Z,55.15
2022-11-23T13:02:10.661Z,56.12
2022-11-23T13:07:46.081Z,58.51
2022-11-23T13:13:14.065Z,62.08
2022-11-23T13:18:28.703Z,62.91
2022-11-23T13:23:37.286Z,62.93
2022-11-23T13:28:41.434Z,63.97
2022-11-23T13:33:45.651Z,69.80
2022-11-23T13:38:48.417Z,70.55
2022-11-23T13:43:52.872Z,70.37
2022-11-23T13:48:57.530Z,69.49
2022-11-23T13:54:02.530Z,73.06
2022-11-23T13:59:30.773Z,72.49
2022-11-23T14:04:35.095Z,71.81
2022-11-23T14:09:46.508Z,72.62
2022-11-23T14:14:57.168Z,73.07
2022-11-23T14:20:15.137Z,74.71
2022-11-23T14:25:35.771Z,73.78
2022-11-23T14:31:05.909Z,74.00
2022-11-23T14:36:21.136Z,73.67
2022-11-23T14:41:25.599Z,74.17
2022-11-23T14:46:30.463Z,76.52
2022-11-23T14:51:34.832Z,75.89
2022-11-23T14:56:43.851Z,80.23
2022-11-23T15:01:51.322Z,77.97
2022-11-23T15:06:58.941Z,77.26
2022-11-23T15:12:10.116Z,79.51
2022-11-23T15:17:19.192Z,84.27
2022-11-23T15:22:22.223Z,81.53
2022-11-23T15:27:29.294Z,85.66
2022-11-23T15:32:35.071Z,91.32
2022-11-23T15:37:44.585Z,89.29
2022-11-23T15:42:50.961Z,92.28
2022-11-23T15:47:54.953Z,90.08
2022-11-23T15:53:00.578Z,90.82
2022-11-23T15:58:08.925Z,88.46
2022-11-23T16:03:30.197Z,86.20
2022-11-23T16:08:37.457Z,88.38
2022-11-23T16:13:40.703Z,88.39
2022-11-23T16:18:47.629Z,87.94
2022-11-23T16:23:54.099Z,88.13
2022-11-23T16:28:58.592Z,90.29
2022-11-23T16:34:02.679Z,89.72
2022-11-23T16:39:05.967Z,86.06
2022-11-23T16:44:08.685Z,85.92
2022-11-23T16:49:16.960Z,85.68
2022-11-23T16:54:31.775Z,88.25
2022-11-23T16:59:35.621Z,92.53
2022-11-23T17:04:39.878Z,91.44
2022-11-23T17:09:42.622Z,90.20
2022-11-23T17:14:48.575Z,88.32
2022-11-23T17:19:52.967Z,88.70
2022-11-23T17:24:55.676Z,89.61
2022-11-23T17:30:00.756Z,89.49
2022-11-23T17:35:05.344Z,89.88
2022-11-23T17:40:14.175Z,89.69
2022-11-23T17:45:19.396Z,90.24
2022-11-23T17:50:25.095Z,91.73
2022-11-23T17:55:27.767Z,92.63
2022-11-23T18:00:31.005Z,90.81
2022-11-23T18:05:35.140Z,89.66
2022-11-23T18:10:38.056Z,91.03
2022-11-23T18:15:40.736Z,89.02
2022-11-23T18:20:44.821Z,88.92
2022-11-23T18:25:47.476Z,88.80
2022-11-23T18:30:50.169Z,88.08
2022-11-23T18:35:54.243Z,89.97
2022-11-23T18:40:56.885Z,90.22
2022-11-23T18:45:59.851Z,91.95
2022-11-23T18:51:06.139Z,90.86
2022-11-23T18:56:10.415Z,92.38
2022-11-23T19:01:15.269Z,92.29
2022-11-23T19:06:20.597Z,90.51
2022-11-23T19:11:25.897Z,90.90
2022-11-23T19:16:31.320Z,91.44
2022-11-23T19:21:36.746Z,90.15
2022-11-23T19:26:39.410Z,89.73
2022-11-23T19:31:42.375Z,90.15
2022-11-23T19:36:46.357Z,88.89
2022-11-23T19:41:49.111Z,90.28
2022-11-23T19:46:51.744Z,89.69
2022-11-23T19:51:56.937Z,91.48
2022-11-23T19:56:59.550Z,91.93
2022-11-23T20:02:02.206Z,91.92
2022-11-23T20:07:06.797Z,91.37
2022-11-23T20:12:09.260Z,90.65
2022-11-23T20:17:11.816Z,90.75
2022-11-23T20:22:15.850Z,95.71
2022-11-23T20:27:18.459Z,96.34
2022-11-23T20:32:21.010Z,100.00
2022-11-23T20:37:25.024Z,100.00
2022-11-23T20:42:27.605Z,97.93
2022-11-23T20:47:30.262Z,95.10
2022-11-23T20:52:34.737Z,93.41
2022-11-23T20:57:37.281Z,93.10
2022-11-23T21:02:39.938Z,95.38
2022-11-23T21:07:44.163Z,96.74
2022-11-23T21:13:04.337Z,96.65
2022-11-23T21:18:07.217Z,97.17
2022-11-23T21:23:11.396Z,97.54
2022-11-23T21:28:13.985Z,94.52
2022-11-23T21:33:16.558Z,93.13
2022-11-23T21:38:23.371Z,94.39
2022-11-23T21:43:26.081Z,93.08
2022-11-23T21:48:28.807Z,93.34
2022-11-23T21:53:33.416Z,97.57
2022-11-23T21:58:36.319Z,95.80
2022-11-23T22:03:40.267Z,96.66
2022-11-23T22:08:45.888Z,97.81
2022-11-23T22:13:49.470Z,97.52
2022-11-23T22:18:55.806Z,99.81
2022-11-23T22:24:01.025Z,96.29
2022-11-23T22:29:06.656Z,94.31
2022-11-23T22:34:13.113Z,93.64
2022-11-23T22:39:17.014Z,92.99
2022-11-23T22:44:19.596Z,94.07
2022-11-23T22:49:22.191Z,95.78
2022-11-23T22:54:26.141Z,99.99
2022-11-23T22:59:28.724Z,99.42
2022-11-23T23:04:31.662Z,99.22
2022-11-23T23:09:35.820Z,97.97
2022-11-23T23:14:38.392Z,99.38
2022-11-23T23:19:41.112Z,96.99
2022-11-23T23:24:45.036Z,97.15
2022-11-23T23:29:47.652Z,98.48
2022-11-23T23:34:50.228Z,96.39
2022-11-23T23:39:54.143Z,94.63
2022-11-23T23:44:56.917Z,96.16
2022-11-23T23:49:59.493Z,95.40
2022-11-23T23:55:03.467Z,94.10
